Time;durP1;ratioP1;P1;durP2;ratioP2;P2;SDS_P1;SDS_P2;PMS_P1;PMS_P2;Temp;Humidity;BMP_temperature;BMP_pressure;BME280_temperature;BME280_humidity;BME280_pressure;Samples;Min_cycle;Max_cycle;Signal;HPM_P1;HPM_P2
2023/02/07 00:00:31;;;;;;;63.92;12.05;;;;;;;5.80;100.00;103666.31;5051244;28;20033;-66
2023/02/07 00:02:56;;;;;;;61.10;12.98;;;;;;;5.84;100.00;103668.66;5052859;28;20658;-66
2023/02/07 00:05:22;;;;;;;62.85;13.20;;;;;;;5.82;100.00;103672.38;5052116;28;20033;-66
2023/02/07 00:07:48;;;;;;;68.43;13.63;;;;;;;5.86;100.00;103673.91;5052111;28;20024;-66
2023/02/07 00:10:14;;;;;;;60.40;12.65;;;;;;;5.82;100.00;103670.56;5052260;28;20028;-66
2023/02/07 00:12:39;;;;;;;50.35;12.10;;;;;;;5.75;100.00;103655.88;5051786;28;20033;-66
2023/02/07 00:15:05;;;;;;;60.90;13.48;;;;;;;5.88;100.00;103678.19;5052163;28;20120;-66
2023/02/07 00:17:31;;;;;;;72.57;15.23;;;;;;;5.84;100.00;103675.84;5052046;28;20029;-66
2023/02/07 00:19:57;;;;;;;58.60;14.55;;;;;;;5.94;100.00;103676.13;5051723;28;20033;-66
2023/02/07 00:22:22;;;;;;;60.63;15.43;;;;;;;5.92;100.00;103676.19;5050063;28;20049;-66
2023/02/07 00:24:48;;;;;;;67.10;16.08;;;;;;;6.00;100.00;103665.91;5051235;28;20408;-66
2023/02/07 00:27:14;;;;;;;86.28;16.40;;;;;;;5.99;100.00;103674.00;5051917;28;20056;-66
2023/02/07 00:29:40;;;;;;;75.97;16.50;;;;;;;5.92;100.00;103673.50;5051630;28;20040;-66
2023/02/07 00:32:06;;;;;;;75.60;17.23;;;;;;;5.97;100.00;103671.47;5051833;28;20068;-66
2023/02/07 00:34:34;;;;;;;60.42;14.00;;;;;;;5.91;100.00;103668.28;5051343;28;20028;-66
2023/02/07 00:37:00;;;;;;;48.78;11.40;;;;;;;5.92;100.00;103675.34;5034555;28;20029;-66
2023/02/07 00:39:26;;;;;;;48.40;12.23;;;;;;;5.94;100.00;103668.97;5051208;28;20029;-66
2023/02/07 00:41:52;;;;;;;41.05;10.63;;;;;;;5.96;100.00;103664.41;5050716;28;20582;-66
2023/02/07 00:44:18;;;;;;;42.65;11.27;;;;;;;5.91;100.00;103673.63;5051025;28;20029;-66
2023/02/07 00:46:43;;;;;;;46.65;11.45;;;;;;;5.87;100.00;103675.63;5051022;28;20453;-66
2023/02/07 00:49:09;;;;;;;54.65;12.35;;;;;;;5.91;100.00;103670.97;5034256;28;20182;-66
2023/02/07 00:51:35;;;;;;;45.92;12.55;;;;;;;5.95;100.00;103673.34;5054753;28;20036;-66
2023/02/07 00:54:01;;;;;;;52.72;11.00;;;;;;;5.91;100.00;103677.16;5055073;28;20037;-66
2023/02/07 00:56:28;;;;;;;47.28;11.30;;;;;;;5.98;100.00;103674.97;5056658;28;20162;-66
2023/02/07 00:58:54;;;;;;;43.95;11.52;;;;;;;5.83;100.00;103640.25;5055966;28;20021;-66
2023/02/07 01:01:20;;;;;;;58.95;12.63;;;;;;;5.89;100.00;103666.56;5055314;28;20021;-66
2023/02/07 01:03:46;;;;;;;61.40;13.65;;;;;;;5.90;100.00;103675.44;5055838;28;20035;-66
2023/02/07 01:06:12;;;;;;;55.50;13.20;;;;;;;6.00;100.00;103681.94;5055304;28;20127;-65
2023/02/07 01:08:38;;;;;;;55.78;13.77;;;;;;;6.01;100.00;103681.00;5055583;28;20360;-66
2023/02/07 01:11:09;;;;;;;59.45;13.35;;;;;;;5.66;100.00;103637.75;5055056;28;20392;-66
2023/02/07 01:13:35;;;;;;;49.00;12.13;;;;;;;5.79;100.00;103677.94;5054370;28;20052;-66
2023/02/07 01:16:01;;;;;;;51.55;12.45;;;;;;;5.80;100.00;103669.84;5054796;28;20396;-66
2023/02/07 01:18:27;;;;;;;47.28;11.88;;;;;;;5.78;100.00;103673.56;5055619;28;20037;-66
2023/02/07 01:20:52;;;;;;;37.08;10.82;;;;;;;5.75;100.00;103668.41;5055848;28;20119;-66
2023/02/07 01:23:18;;;;;;;43.88;10.60;;;;;;;5.76;100.00;103671.00;5054780;28;20081;-66
2023/02/07 01:25:45;;;;;;;38.47;10.18;;;;;;;5.78;100.00;103671.72;5056355;28;20075;-66
2023/02/07 01:28:14;;;;;;;39.63;10.07;;;;;;;5.76;100.00;103667.44;5054218;28;20292;-66
2023/02/07 01:30:41;;;;;;;43.53;10.88;;;;;;;5.76;100.00;103662.09;5054792;28;20025;-66
2023/02/07 01:33:07;;;;;;;46.60;9.52;;;;;;;5.76;100.00;103657.63;5054364;28;20106;-66
2023/02/07 01:35:32;;;;;;;42.08;10.40;;;;;;;5.81;100.00;103665.34;5055920;28;20029;-66
2023/02/07 01:37:58;;;;;;;43.53;9.93;;;;;;;5.42;100.00;103594.78;5054394;28;20040;-66
2023/02/07 01:40:25;;;;;;;36.50;9.13;;;;;;;5.80;100.00;103659.13;5020906;28;20452;-66
2023/02/07 01:42:51;;;;;;;47.10;9.60;;;;;;;5.82;100.00;103657.22;5054981;28;20118;-66
2023/02/07 01:45:32;;;;;;;34.55;8.90;;;;;;;5.83;100.00;103661.63;5054316;28;20300;-66
2023/02/07 01:48:02;;;;;;;47.38;8.95;;;;;;;5.76;100.00;103651.41;5053549;28;20032;-66
2023/02/07 01:50:28;;;;;;;39.80;8.90;;;;;;;5.89;100.00;103657.69;5054644;28;20051;-66
2023/02/07 01:52:56;;;;;;;40.53;8.65;;;;;;;5.91;100.00;103652.25;5055219;28;20044;-66
2023/02/07 01:55:26;;;;;;;38.13;8.88;;;;;;;5.82;100.00;103649.19;5053655;28;20179;-66
2023/02/07 01:57:52;;;;;;;40.95;8.45;;;;;;;5.90;100.00;103648.72;5054241;28;20429;-66
2023/02/07 02:00:18;;;;;;;39.70;8.35;;;;;;;5.82;100.00;103653.69;5053497;28;20025;-66
2023/02/07 02:02:43;;;;;;;42.80;7.82;;;;;;;5.87;100.00;103662.28;5054033;28;20051;-66
2023/02/07 02:05:10;;;;;;;42.88;9.60;;;;;;;5.90;100.00;103654.06;5054986;28;20061;-65
2023/02/07 02:07:38;;;;;;;40.83;7.82;;;;;;;5.91;100.00;103653.09;5055082;28;20403;-66
2023/02/07 02:10:31;;;;;;;41.50;8.60;;;;;;;5.96;100.00;103647.47;5054860;28;20475;-66
2023/02/07 02:12:59;;;;;;;46.20;8.63;;;;;;;5.89;100.00;103649.66;5053038;28;20060;-66
2023/02/07 02:15:33;;;;;;;39.78;8.90;;;;;;;5.85;100.00;103640.13;5054236;28;20055;-66
2023/02/07 02:18:11;;;;;;;45.72;8.13;;;;;;;5.94;100.00;103644.06;5054651;28;20025;-66
2023/02/07 02:21:07;;;;;;;40.53;9.05;;;;;;;6.02;100.00;103631.91;5053067;28;20033;-66
2023/02/07 02:23:42;;;;;;;48.35;9.70;;;;;;;6.00;100.00;103631.16;5052546;28;20415;-66
2023/02/07 02:26:36;;;;;;;47.90;9.32;;;;;;;5.99;100.00;103625.91;5052758;28;20116;-66
2023/02/07 02:29:15;;;;;;;37.63;8.88;;;;;;;5.95;100.00;103637.75;5053384;28;20052;-66
2023/02/07 02:31:43;;;;;;;35.22;8.98;;;;;;;5.92;100.00;103630.75;5053461;28;20025;-66
2023/02/07 02:34:16;;;;;;;43.13;9.23;;;;;;;5.84;100.00;103625.91;5053958;28;20025;-66
2023/02/07 02:37:04;;;;;;;33.28;8.55;;;;;;;5.73;100.00;103620.41;5054140;28;20025;-66
2023/02/07 02:39:46;;;;;;;45.80;9.30;;;;;;;5.89;100.00;103639.84;5054230;28;20344;-66
2023/02/07 02:42:40;;;;;;;40.97;9.38;;;;;;;5.93;100.00;103645.88;5051438;28;20037;-66
2023/02/07 02:45:18;;;;;;;42.15;8.55;;;;;;;5.92;100.00;103644.13;5030624;28;20067;-66
2023/02/07 02:47:46;;;;;;;40.35;7.97;;;;;;;5.90;100.00;103651.41;5053448;28;20036;-66
2023/02/07 02:50:16;;;;;;;42.28;9.10;;;;;;;5.95;100.00;103646.63;5053462;28;20089;-66
2023/02/07 02:52:42;;;;;;;41.35;8.88;;;;;;;5.91;100.00;103644.22;5052294;28;20071;-66
2023/02/07 02:55:07;;;;;;;36.72;8.57;;;;;;;5.95;100.00;103651.97;5054078;28;20452;-66
2023/02/07 02:57:38;;;;;;;44.80;9.82;;;;;;;5.95;100.00;103638.63;5035157;28;20396;-66
2023/02/07 03:00:17;;;;;;;55.65;10.07;;;;;;;5.97;100.00;103647.41;5051492;28;20025;-66
2023/02/07 03:02:49;;;;;;;41.20;10.05;;;;;;;5.90;100.00;103643.38;5053576;28;20031;-67
2023/02/07 03:05:32;;;;;;;54.72;10.35;;;;;;;5.92;100.00;103640.59;5053021;28;20040;-66
2023/02/07 03:08:11;;;;;;;39.55;9.88;;;;;;;5.87;100.00;103643.56;5052221;28;20028;-66
2023/02/07 03:10:59;;;;;;;37.63;9.73;;;;;;;5.84;100.00;103627.75;5053183;28;20461;-66
2023/02/07 03:13:32;;;;;;;39.15;9.32;;;;;;;5.79;100.00;103619.16;5053169;28;20451;-66
2023/02/07 03:16:12;;;;;;;42.67;10.02;;;;;;;5.89;100.00;103628.28;5052625;28;20040;-66
2023/02/07 03:18:51;;;;;;;35.92;9.93;;;;;;;5.92;100.00;103620.06;5052934;28;20021;-66
2023/02/07 03:21:19;;;;;;;41.47;9.70;;;;;;;5.99;100.00;103637.44;5052786;28;20036;-66
2023/02/07 03:23:47;;;;;;;48.05;10.98;;;;;;;5.91;100.00;103636.22;5051471;28;20504;-66
2023/02/07 03:26:13;;;;;;;45.95;10.48;;;;;;;5.85;100.00;103618.75;5051274;28;20045;-65
2023/02/07 03:28:41;;;;;;;40.10;10.07;;;;;;;5.84;100.00;103609.03;5051714;28;20079;-66
2023/02/07 03:31:09;;;;;;;42.35;10.63;;;;;;;5.98;100.00;103625.06;5051024;28;20074;-66
2023/02/07 03:33:35;;;;;;;40.05;10.20;;;;;;;6.07;100.00;103624.47;5052753;28;20387;-66
2023/02/07 03:36:18;;;;;;;37.90;10.15;;;;;;;6.09;100.00;103621.66;5050280;28;20112;-66
2023/02/07 03:38:45;;;;;;;44.55;10.00;;;;;;;6.08;100.00;103615.47;5052510;28;20047;-65
2023/02/07 03:41:17;;;;;;;40.88;10.95;;;;;;;6.09;100.00;103608.31;5052286;28;20032;-66
2023/02/07 03:43:43;;;;;;;45.22;9.95;;;;;;;6.02;100.00;103607.84;5052455;28;20041;-66
2023/02/07 03:46:09;;;;;;;45.13;9.93;;;;;;;6.06;100.00;103614.72;5052339;28;20029;-65
2023/02/07 03:48:35;;;;;;;42.78;9.90;;;;;;;6.02;100.00;103598.97;5051241;28;20021;-65
2023/02/07 03:51:00;;;;;;;38.63;10.57;;;;;;;6.02;100.00;103590.97;5051324;28;20071;-66
2023/02/07 03:53:26;;;;;;;43.40;11.13;;;;;;;6.04;100.00;103591.72;5052554;28;20494;-66
2023/02/07 03:55:52;;;;;;;54.53;10.90;;;;;;;5.92;100.00;103571.97;5052743;28;20024;-65
2023/02/07 03:58:17;;;;;;;36.95;10.25;;;;;;;6.07;100.00;103605.75;5051357;28;20044;-66
2023/02/07 04:00:43;;;;;;;50.45;10.95;;;;;;;6.08;100.00;103601.25;5052851;28;20032;-66
2023/02/07 04:03:08;;;;;;;45.65;10.63;;;;;;;6.01;100.00;103595.44;5052544;28;20375;-66
2023/02/07 04:05:34;;;;;;;44.33;11.77;;;;;;;6.12;99.89;103589.38;5051291;28;20044;-65
2023/02/07 04:07:59;;;;;;;35.83;10.38;;;;;;;6.01;100.00;103587.44;5051203;28;20052;-65
2023/02/07 04:10:25;;;;;;;46.53;11.43;;;;;;;6.09;100.00;103585.13;5050620;28;20037;-66
2023/02/07 04:12:50;;;;;;;44.13;10.90;;;;;;;6.05;100.00;103586.25;5050574;28;20411;-66
2023/02/07 04:15:16;;;;;;;48.85;11.10;;;;;;;5.95;100.00;103576.28;5051227;28;20028;-65
2023/02/07 04:17:41;;;;;;;43.65;10.48;;;;;;;6.09;100.00;103590.47;5051719;28;20036;-66
2023/02/07 04:20:08;;;;;;;42.70;10.73;;;;;;;6.08;100.00;103596.75;5033844;28;20036;-66
2023/02/07 04:22:33;;;;;;;42.88;10.73;;;;;;;6.11;100.00;103590.34;5052793;28;20049;-66
2023/02/07 04:24:59;;;;;;;43.83;10.27;;;;;;;6.11;100.00;103588.53;5052454;28;20040;-66
2023/02/07 04:27:24;;;;;;;52.17;10.40;;;;;;;6.15;100.00;103583.00;5052915;28;20036;-66
2023/02/07 04:29:50;;;;;;;36.35;10.00;;;;;;;6.06;100.00;103592.47;5051289;28;20094;-66
2023/02/07 04:32:16;;;;;;;41.00;10.70;;;;;;;6.18;100.00;103593.47;5051749;28;20096;-65
2023/02/07 04:34:41;;;;;;;42.90;10.15;;;;;;;6.18;100.00;103588.13;5051551;28;20044;-65
2023/02/07 04:37:06;;;;;;;37.72;9.90;;;;;;;6.19;100.00;103587.16;5050676;28;20041;-66
2023/02/07 04:39:32;;;;;;;40.85;9.27;;;;;;;6.13;100.00;103596.47;5051430;28;20120;-65
2023/02/07 04:41:57;;;;;;;37.42;8.85;;;;;;;6.00;100.00;103560.81;5051766;28;20043;-65
2023/02/07 04:44:23;;;;;;;37.78;8.98;;;;;;;6.13;100.00;103584.94;5052669;28;20100;-66
2023/02/07 04:46:48;;;;;;;41.45;9.60;;;;;;;6.08;100.00;103567.34;5034008;28;20395;-66
2023/02/07 04:49:14;;;;;;;39.33;8.63;;;;;;;6.15;100.00;103581.16;5051478;28;20017;-65
2023/02/07 04:51:39;;;;;;;36.92;8.02;;;;;;;6.17;100.00;103573.06;5051221;28;20116;-66
2023/02/07 04:54:05;;;;;;;47.15;8.30;;;;;;;6.07;100.00;103557.63;5051813;28;20024;-66
2023/02/07 04:56:30;;;;;;;41.75;8.60;;;;;;;6.01;100.00;103558.03;5050741;28;20047;-66
2023/02/07 04:58:56;;;;;;;40.40;8.05;;;;;;;6.04;100.00;103554.31;5051763;28;20032;-65
2023/02/07 05:01:21;;;;;;;41.80;7.80;;;;;;;6.07;100.00;103557.63;5050637;28;20060;-66
2023/02/07 05:03:47;;;;;;;32.38;7.10;;;;;;;5.98;100.00;103547.53;5051995;28;20036;-65
2023/02/07 05:06:12;;;;;;;38.47;7.60;;;;;;;5.92;100.00;103534.53;5051597;28;20112;-66
2023/02/07 05:08:37;;;;;;;39.30;8.65;;;;;;;6.07;100.00;103559.44;5050206;28;20471;-65
2023/02/07 05:11:05;;;;;;;34.63;7.40;;;;;;;5.96;100.00;103543.25;5051122;28;20029;-66
2023/02/07 05:13:30;;;;;;;35.65;7.22;;;;;;;5.98;100.00;103549.34;5051805;28;20504;-66
2023/02/07 05:15:56;;;;;;;33.17;6.95;;;;;;;6.00;100.00;103556.31;5052031;28;20035;-66
2023/02/07 05:18:22;;;;;;;32.60;6.60;;;;;;;6.02;100.00;103557.06;5034894;28;20070;-66
2023/02/07 05:20:47;;;;;;;33.22;6.90;;;;;;;5.92;100.00;103531.03;5051736;28;20061;-66
2023/02/07 05:23:13;;;;;;;41.58;6.32;;;;;;;6.09;100.00;103555.72;5049874;28;20168;-65
2023/02/07 05:25:42;;;;;;;27.58;5.63;;;;;;;6.08;100.00;103554.00;5051673;28;20036;-65
2023/02/07 05:28:08;;;;;;;34.50;6.32;;;;;;;6.06;100.00;103549.69;5049838;28;20025;-66
2023/02/07 05:30:34;;;;;;;41.00;8.13;;;;;;;5.97;100.00;103550.34;5051178;28;20021;-66
2023/02/07 05:33:05;;;;;;;35.63;7.20;;;;;;;5.96;100.00;103530.78;5051040;28;20025;-66
2023/02/07 05:35:33;;;;;;;28.83;6.20;;;;;;;6.06;100.00;103545.22;5051532;28;20025;-65
2023/02/07 05:38:01;;;;;;;26.10;5.57;;;;;;;5.99;100.00;103543.03;5054148;28;20445;-66
2023/02/07 05:40:27;;;;;;;37.58;6.70;;;;;;;6.00;100.00;103534.09;5055838;28;20041;-65
2023/02/07 05:42:53;;;;;;;31.05;6.43;;;;;;;6.11;100.00;103539.56;5053482;28;20024;-65
2023/02/07 05:45:20;;;;;;;38.78;7.05;;;;;;;6.01;100.00;103536.66;5055094;28;20025;-65
2023/02/07 05:47:45;;;;;;;31.35;6.32;;;;;;;6.06;100.00;103521.19;5053205;28;20052;-65
2023/02/07 05:50:11;;;;;;;33.65;6.57;;;;;;;6.02;100.00;103518.78;5053626;28;20025;-65
2023/02/07 05:52:37;;;;;;;36.00;6.10;;;;;;;6.10;100.00;103528.03;5054907;28;20029;-65
2023/02/07 05:55:04;;;;;;;28.00;5.75;;;;;;;6.06;100.00;103525.63;5020532;28;20025;-66
2023/02/07 05:57:30;;;;;;;26.42;5.95;;;;;;;6.05;100.00;103516.75;5055377;28;20083;-66
2023/02/07 05:59:55;;;;;;;31.00;6.20;;;;;;;6.09;100.00;103523.66;5054546;28;20452;-65
2023/02/07 06:02:21;;;;;;;35.85;7.10;;;;;;;6.10;100.00;103511.97;5054498;28;20111;-65
2023/02/07 06:04:46;;;;;;;32.88;6.22;;;;;;;6.04;100.00;103522.22;5053425;28;20032;-65
2023/02/07 06:07:12;;;;;;;33.45;6.75;;;;;;;5.95;100.00;103523.69;5053006;28;20033;-65
2023/02/07 06:09:37;;;;;;;34.13;6.35;;;;;;;5.86;100.00;103505.56;5054551;28;20024;-66
2023/02/07 06:12:03;;;;;;;28.15;5.05;;;;;;;6.03;100.00;103521.38;5037210;28;20044;-65
2023/02/07 06:14:28;;;;;;;31.08;5.28;;;;;;;6.05;100.00;103519.44;5053657;28;20055;-65
2023/02/07 06:16:53;;;;;;;28.77;4.93;;;;;;;6.08;100.00;103518.38;5052868;28;20510;-65
2023/02/07 06:19:19;;;;;;;29.38;4.28;;;;;;;5.99;100.00;103522.53;5055115;28;20025;-65
2023/02/07 06:21:44;;;;;;;34.53;4.80;;;;;;;6.09;100.00;103512.94;5053012;28;20033;-65
2023/02/07 06:24:10;;;;;;;39.75;4.75;;;;;;;6.00;100.00;103520.72;5054018;28;20053;-66
2023/02/07 06:26:36;;;;;;;29.00;4.18;;;;;;;6.16;100.00;103518.75;5053271;28;20033;-65
2023/02/07 06:29:01;;;;;;;19.88;3.53;;;;;;;6.01;100.00;103520.63;5054062;28;20501;-65
2023/02/07 06:31:26;;;;;;;22.63;3.58;;;;;;;5.81;100.00;103518.38;5054529;28;20460;-65
2023/02/07 06:33:52;;;;;;;28.52;4.20;;;;;;;5.95;100.00;103518.34;5052927;28;20494;-65
2023/02/07 06:36:17;;;;;;;18.52;2.92;;;;;;;5.87;100.00;103520.66;5052903;28;20155;-65
2023/02/07 06:38:43;;;;;;;19.85;3.70;;;;;;;5.96;100.00;103524.53;5053095;28;20115;-65
2023/02/07 06:41:10;;;;;;;19.75;3.67;;;;;;;5.88;100.00;103509.00;5054333;28;20025;-65
2023/02/07 06:43:39;;;;;;;27.30;3.67;;;;;;;5.92;100.00;103523.84;5054817;28;20442;-65
2023/02/07 06:46:05;;;;;;;17.40;3.10;;;;;;;5.91;100.00;103527.50;5054472;28;20040;-65
2023/02/07 06:48:30;;;;;;;16.90;3.25;;;;;;;6.02;100.00;103535.69;5052307;28;20029;-65
2023/02/07 06:50:55;;;;;;;21.83;3.55;;;;;;;6.01;100.00;103536.66;5053559;28;20029;-65
2023/02/07 06:53:21;;;;;;;23.45;3.53;;;;;;;6.00;100.00;103531.41;5053191;28;20076;-66
2023/02/07 06:55:47;;;;;;;23.15;3.50;;;;;;;6.01;100.00;103522.44;5053663;28;20037;-65
2023/02/07 06:58:12;;;;;;;27.73;3.35;;;;;;;6.06;100.00;103537.22;5052526;28;20025;-65
2023/02/07 07:00:38;;;;;;;23.02;3.50;;;;;;;6.10;100.00;103533.38;5054372;28;20104;-65
2023/02/07 07:03:04;;;;;;;18.50;2.92;;;;;;;5.94;100.00;103538.03;5053950;28;20029;-65
2023/02/07 07:05:29;;;;;;;13.98;3.78;;;;;;;6.05;100.00;103534.63;5053811;28;20029;-65
2023/02/07 07:07:55;;;;;;;23.08;3.05;;;;;;;6.06;100.00;103537.22;5053221;28;20036;-65
2023/02/07 07:10:21;;;;;;;27.55;2.65;;;;;;;6.07;100.00;103535.38;5051910;28;20075;-65
2023/02/07 07:12:47;;;;;;;16.55;2.90;;;;;;;5.96;100.00;103522.75;5052073;28;20041;-65
2023/02/07 07:15:12;;;;;;;28.40;3.08;;;;;;;6.18;100.00;103538.19;5052077;28;20024;-65
2023/02/07 07:17:38;;;;;;;23.10;3.17;;;;;;;6.17;100.00;103527.63;5053459;28;20120;-65
2023/02/07 07:20:06;;;;;;;24.25;3.15;;;;;;;6.19;100.00;103537.25;5035195;28;20086;-66
2023/02/07 07:22:32;;;;;;;17.60;2.40;;;;;;;6.06;100.00;103510.47;5051594;28;20057;-65
2023/02/07 07:24:57;;;;;;;23.63;3.53;;;;;;;6.18;100.00;103526.66;5053054;28;20033;-65
2023/02/07 07:27:23;;;;;;;21.08;3.08;;;;;;;6.05;100.00;103523.94;5051890;28;20040;-66
2023/02/07 07:29:48;;;;;;;18.40;2.67;;;;;;;6.10;100.00;103527.16;5051699;28;20033;-65
2023/02/07 07:32:14;;;;;;;22.38;3.20;;;;;;;6.14;100.00;103506.44;5052872;28;20029;-65
2023/02/07 07:34:40;;;;;;;25.83;3.25;;;;;;;6.18;100.00;103519.47;5035707;28;20162;-65
2023/02/07 07:37:05;;;;;;;21.92;3.35;;;;;;;6.07;100.00;103514.84;5050716;28;20124;-65
2023/02/07 07:39:31;;;;;;;22.15;3.80;;;;;;;5.96;100.00;103481.78;5053000;28;20044;-65
2023/02/07 07:41:56;;;;;;;21.88;3.35;;;;;;;6.23;100.00;103520.03;5052486;28;20024;-65
2023/02/07 07:44:22;;;;;;;17.08;2.95;;;;;;;6.24;100.00;103520.88;5052625;28;20119;-65
2023/02/07 07:46:47;;;;;;;20.90;3.40;;;;;;;6.28;100.00;103523.25;5053699;28;20044;-66
2023/02/07 07:49:13;;;;;;;23.83;2.70;;;;;;;6.30;100.00;103512.44;5052338;28;20025;-65
2023/02/07 07:51:38;;;;;;;18.52;2.92;;;;;;;6.29;100.00;103521.41;5052408;28;20028;-65
2023/02/07 07:54:03;;;;;;;21.15;3.42;;;;;;;6.32;100.00;103518.53;5053496;28;20039;-65
2023/02/07 07:56:29;;;;;;;29.90;3.45;;;;;;;6.42;100.00;103532.13;5052831;28;20099;-65
2023/02/07 07:58:57;;;;;;;25.65;4.28;;;;;;;6.39;100.00;103533.22;5052422;28;20029;-65
2023/02/07 08:01:22;;;;;;;25.92;4.22;;;;;;;6.49;100.00;103534.31;5050507;28;20033;-65
2023/02/07 08:03:48;;;;;;;29.55;3.95;;;;;;;6.54;100.00;103534.84;5051432;28;20036;-65
2023/02/07 08:06:13;;;;;;;24.30;3.80;;;;;;;6.55;100.00;103528.50;5051057;28;20449;-65
2023/02/07 08:08:39;;;;;;;27.33;4.63;;;;;;;6.41;100.00;103512.56;5050987;28;20082;-65
2023/02/07 08:11:07;;;;;;;21.45;3.50;;;;;;;6.53;100.00;103533.13;5052485;28;20039;-65
2023/02/07 08:13:33;;;;;;;27.95;4.15;;;;;;;6.53;100.00;103514.41;5053380;28;20096;-65
2023/02/07 08:16:00;;;;;;;25.02;3.90;;;;;;;6.70;100.00;103536.47;5052531;28;20053;-65
2023/02/07 08:18:25;;;;;;;22.60;3.75;;;;;;;6.67;100.00;103542.88;5051353;28;20033;-65
2023/02/07 08:20:51;;;;;;;20.73;3.55;;;;;;;6.66;100.00;103540.31;5051327;28;20168;-65
2023/02/07 08:23:16;;;;;;;20.98;3.33;;;;;;;6.77;100.00;103537.75;5052240;28;20450;-65
2023/02/07 08:25:42;;;;;;;36.55;4.43;;;;;;;6.70;100.00;103541.81;5051793;28;20495;-65
2023/02/07 08:28:09;;;;;;;28.27;4.30;;;;;;;6.67;100.00;103537.53;5051858;28;20191;-65
2023/02/07 08:30:34;;;;;;;30.25;4.18;;;;;;;6.73;100.00;103522.88;5052000;28;20021;-65
2023/02/07 08:33:00;;;;;;;21.88;4.32;;;;;;;6.78;100.00;103534.94;5052257;28;20357;-65
2023/02/07 08:35:26;;;;;;;32.03;4.57;;;;;;;6.70;100.00;103534.63;5052248;28;20025;-65
2023/02/07 08:37:52;;;;;;;26.73;4.97;;;;;;;6.66;100.00;103524.25;5052167;28;20061;-65
2023/02/07 08:40:18;;;;;;;28.17;4.78;;;;;;;6.78;100.00;103540.28;5050849;28;20443;-65
2023/02/07 08:42:43;;;;;;;37.58;5.38;;;;;;;6.77;100.00;103533.25;5050916;28;20146;-65
2023/02/07 08:45:09;;;;;;;26.23;4.47;;;;;;;6.76;100.00;103536.03;5052162;28;20036;-66
2023/02/07 08:47:35;;;;;;;37.15;4.93;;;;;;;6.95;100.00;103536.44;5051869;28;20050;-65
2023/02/07 08:50:00;;;;;;;27.80;4.85;;;;;;;6.86;100.00;103547.81;5050987;28;20041;-65
2023/02/07 08:52:26;;;;;;;33.42;5.57;;;;;;;6.87;100.00;103552.19;5052335;28;20039;-66
2023/02/07 08:54:51;;;;;;;35.13;5.22;;;;;;;6.96;100.00;103546.19;5051104;28;20090;-65
2023/02/07 08:57:21;;;;;;;25.77;5.18;;;;;;;6.83;100.00;103548.03;5054936;28;20033;-66
2023/02/07 08:59:47;;;;;;;38.13;6.20;;;;;;;6.77;100.00;103543.94;5057480;28;20029;-65
2023/02/07 09:02:13;;;;;;;24.98;4.35;;;;;;;6.67;100.00;103542.88;5051136;28;20510;-66
2023/02/07 09:04:41;;;;;;;34.40;5.43;;;;;;;6.89;100.00;103547.59;5052941;28;20039;-65
2023/02/07 09:07:07;;;;;;;33.88;6.40;;;;;;;6.90;100.00;103543.09;5052535;28;20472;-66
2023/02/07 09:09:32;;;;;;;33.63;5.45;;;;;;;6.88;100.00;103535.16;5052266;28;20078;-66
2023/02/07 09:11:57;;;;;;;29.38;5.43;;;;;;;6.91;100.00;103529.59;5053406;28;20037;-65
2023/02/07 09:14:23;;;;;;;28.90;5.80;;;;;;;6.86;100.00;103531.75;5056332;28;20056;-65
2023/02/07 09:16:48;;;;;;;26.88;5.60;;;;;;;6.73;100.00;103501.47;5056511;28;20033;-65
2023/02/07 09:19:14;;;;;;;34.22;5.50;;;;;;;6.95;100.00;103519.50;5055319;28;20123;-65
2023/02/07 09:21:39;;;;;;;27.38;5.53;;;;;;;6.88;100.00;103500.34;5054833;28;20070;-65
2023/02/07 09:24:05;;;;;;;29.60;6.07;;;;;;;7.02;100.00;103515.47;5055751;28;20052;-65
2023/02/07 09:26:33;;;;;;;26.33;5.88;;;;;;;7.03;100.00;103512.66;5056114;28;20029;-65
2023/02/07 09:28:58;;;;;;;27.23;5.57;;;;;;;7.12;100.00;103515.63;5055918;28;20028;-65
2023/02/07 09:31:24;;;;;;;31.48;5.90;;;;;;;6.98;100.00;103488.03;5055763;28;20499;-65
2023/02/07 09:33:50;;;;;;;32.05;6.78;;;;;;;7.11;100.00;103503.22;5053735;28;20472;-66
2023/02/07 09:36:22;;;;;;;30.67;6.72;;;;;;;7.11;100.00;103498.72;5054574;28;20117;-65
2023/02/07 09:38:48;;;;;;;33.83;6.35;;;;;;;7.00;100.00;103496.81;5055827;28;20072;-65
2023/02/07 09:41:35;;;;;;;30.92;6.40;;;;;;;7.13;100.00;103502.16;5055860;28;20056;-66
2023/02/07 09:44:31;;;;;;;28.95;6.65;;;;;;;7.11;100.00;103503.22;5055048;28;20031;-65
2023/02/07 09:47:20;;;;;;;28.77;6.32;;;;;;;7.19;100.00;103506.22;5057285;28;20025;-65
2023/02/07 09:49:54;;;;;;;28.88;6.40;;;;;;;7.15;100.00;103491.31;5049137;28;20025;-65
2023/02/07 09:52:24;;;;;;;27.08;6.70;;;;;;;7.10;100.00;103496.16;5064811;28;20025;-66
2023/02/07 09:54:53;;;;;;;42.10;7.85;;;;;;;7.19;100.00;103490.16;5057264;28;20112;-65
2023/02/07 09:57:41;;;;;;;35.70;6.68;;;;;;;7.19;100.00;103487.47;5057440;28;20033;-66
2023/02/07 10:00:18;;;;;;;39.83;7.50;;;;;;;7.32;100.00;103490.97;5054464;28;20076;-65
2023/02/07 10:02:51;;;;;;;32.33;7.45;;;;;;;7.40;99.47;103493.94;5053408;28;20031;-65
2023/02/07 10:05:20;;;;;;;32.72;7.60;;;;;;;7.54;99.55;103483.03;5054700;28;20020;-65
2023/02/07 10:07:47;;;;;;;35.22;7.75;;;;;;;7.52;99.38;103485.00;5053780;28;20017;-65
2023/02/07 10:10:34;;;;;;;36.58;8.13;;;;;;;7.47;99.13;103489.84;5054650;28;20055;-65
2023/02/07 10:13:26;;;;;;;39.72;7.10;;;;;;;7.58;99.40;103496.22;5050777;28;20108;-65
2023/02/07 10:16:21;;;;;;;37.70;7.82;;;;;;;7.60;99.22;103499.66;5054788;28;20143;-65
2023/02/07 10:18:55;;;;;;;33.05;7.30;;;;;;;7.62;98.88;103495.06;5055077;28;20078;-65
2023/02/07 10:21:39;;;;;;;33.45;7.70;;;;;;;7.45;99.70;103494.47;5055131;28;20087;-66
2023/02/07 10:24:18;;;;;;;31.27;6.53;;;;;;;7.54;99.58;103501.81;5053416;28;20056;-65
2023/02/07 10:27:03;;;;;;;33.83;7.10;;;;;;;7.67;98.69;103492.88;5056137;28;20029;-66
2023/02/07 10:29:48;;;;;;;29.45;6.45;;;;;;;7.67;98.52;103493.72;5054081;28;20332;-65
2023/02/07 10:32:19;;;;;;;35.00;7.13;;;;;;;7.78;98.96;103503.63;5054705;28;20094;-65
2023/02/07 10:34:49;;;;;;;33.97;7.43;;;;;;;7.60;98.65;103472.84;5054750;28;20675;-66
2023/02/07 10:37:22;;;;;;;31.70;7.55;;;;;;;7.63;98.85;103496.75;5053720;28;20025;-66
2023/02/07 10:39:57;;;;;;;30.27;7.72;;;;;;;7.63;99.29;103499.44;5054698;28;20438;-66
2023/02/07 10:42:23;;;;;;;41.72;8.38;;;;;;;7.58;99.42;103504.25;5054923;28;20029;-66
2023/02/07 10:44:48;;;;;;;31.48;6.97;;;;;;;7.59;99.77;103506.84;5053279;28;20040;-65
2023/02/07 10:47:16;;;;;;;36.22;6.90;;;;;;;7.66;99.04;103509.94;5054144;28;20079;-65
2023/02/07 10:49:45;;;;;;;41.33;7.75;;;;;;;7.64;99.52;103510.03;5059422;28;20447;-65
2023/02/07 10:52:38;;;;;;;47.15;7.57;;;;;;;7.73;98.41;103485.22;5052719;28;20447;-65
2023/02/07 10:55:08;;;;;;;39.30;8.43;;;;;;;7.77;98.48;103508.13;5054950;28;20605;-65
2023/02/07 10:57:33;;;;;;;33.20;6.55;;;;;;;7.61;98.80;103509.41;5052901;28;20025;-66
2023/02/07 11:00:05;;;;;;;33.40;7.40;;;;;;;7.73;98.44;103495.94;5053861;28;20445;-65
2023/02/07 11:02:30;;;;;;;35.67;8.05;;;;;;;7.69;98.70;103512.38;5053791;28;20051;-65
2023/02/07 11:05:04;;;;;;;29.52;6.18;;;;;;;7.77;98.48;103508.13;5054060;28;20029;-66
2023/02/07 11:07:31;;;;;;;35.10;7.43;;;;;;;7.74;98.81;103521.78;5052343;28;20025;-65
2023/02/07 11:10:20;;;;;;;32.45;6.90;;;;;;;7.74;98.50;103505.69;5054165;28;20486;-65
2023/02/07 11:12:54;;;;;;;36.42;7.35;;;;;;;7.80;98.61;103511.56;5052046;28;20021;-65
2023/02/07 11:15:24;;;;;;;32.60;6.82;;;;;;;7.81;98.39;103519.50;5052112;28;20499;-67
2023/02/07 11:17:54;;;;;;;41.42;8.52;;;;;;;7.86;98.23;103511.97;5052849;28;20033;-65
2023/02/07 11:20:36;;;;;;;37.60;6.57;;;;;;;7.90;98.17;103509.91;5053699;28;20024;-65
2023/02/07 11:23:12;;;;;;;34.25;6.20;;;;;;;7.84;98.55;103513.91;5052452;28;20045;-65